Main page
METAR-TAF:

METAR-TAF

Airports :

Vigo–Peinador Airport

Vigo, Spain

latitude: 42-13N, longitude: 008-38W, elevation: 264 m

Current weather observation

The report was made 20 minutes ago, at 23:30 UTC
Wind 7 kt from the North
Temperature 16°C
Humidity 72%
Pressure 1019 hPa
Visibility 10 km or more
Scattered clouds at a height of 2800 ft

METAR: LEVX 302330Z 01007KT 9999 SCT028 16/11 Q1019 NOSIG

Time: 01:50 (23:50 UTC)

Forecast

The report was made 50 minutes ago, at 23:00 UTC
Forecast valid from 31 at 00 UTC to 31 at 24 UTC
Wind 9 kt from the North/Northwest
Visibility 10 km or more
Scattered clouds at a height of 2000 ft
Scattered clouds at a height of 3500 ft

TAF: LEVX 302300Z 3100/3124 34009KT 9999 SCT020 SCT035 TX20/3113Z TN12/3106Z

Weather observations and forecasts of more than 4000 airports (METAR and TAF reports).

The available stations are represented by yellow and red dots on the map.

Hover mouse over dot to see the name of the station.

Then click to see weather observations and forecasts.

To change the map : click on the green buttons with a black cross to zoom in, on the green button with a dash to zoom out, or on the green arrows for adjacent maps.


METAR-TAF: